Time;durP1;ratioP1;P1;durP2;ratioP2;P2;SDS_P1;SDS_P2;PMS_P1;PMS_P2;Temp;Humidity;BMP_temperature;BMP_pressure;BME280_temperature;BME280_humidity;BME280_pressure;Samples;Min_cycle;Max_cycle;Signal;HPM_P1;HPM_P2
2021/11/14 00:00:27;;;;;;;17.35;7.63;;;11.30;99.90;;;;;;6239155;22;20392;-62
2021/11/14 00:02:54;;;;;;;17.15;7.50;;;11.30;99.90;;;;;;6237943;23;20334;-61
2021/11/14 00:05:20;;;;;;;15.45;7.43;;;11.30;99.90;;;;;;6239258;22;20008;-62
2021/11/14 00:07:45;;;;;;;19.75;7.65;;;11.30;99.90;;;;;;6240415;22;20008;-62
2021/11/14 00:10:11;;;;;;;17.00;7.57;;;11.30;99.90;;;;;;6239479;22;20004;-61
2021/11/14 00:12:39;;;;;;;18.75;7.70;;;11.30;99.90;;;;;;6238800;22;20371;-62
2021/11/14 00:15:07;;;;;;;16.05;7.35;;;11.30;99.90;;;;;;6240089;22;20046;-62
2021/11/14 00:17:33;;;;;;;17.40;7.93;;;11.30;99.90;;;;;;6239330;22;20012;-62
2021/11/14 00:19:59;;;;;;;15.98;7.38;;;11.30;99.90;;;;;;6238362;22;20015;-63
2021/11/14 00:22:25;;;;;;;15.88;7.93;;;11.30;99.90;;;;;;6239010;22;20015;-63
2021/11/14 00:24:50;;;;;;;15.32;7.22;;;11.30;99.90;;;;;;6238224;23;20008;-62
2021/11/14 00:27:16;;;;;;;17.48;7.28;;;11.20;99.90;;;;;;6240012;22;20095;-61
2021/11/14 00:29:42;;;;;;;13.18;7.13;;;11.30;99.90;;;;;;6239395;22;20016;-61
2021/11/14 00:32:08;;;;;;;15.95;7.35;;;11.30;99.90;;;;;;6237750;22;20091;-65
2021/11/14 00:34:35;;;;;;;17.52;7.88;;;11.20;99.90;;;;;;6237747;22;20022;-62
2021/11/14 00:37:01;;;;;;;13.85;7.18;;;11.20;99.90;;;;;;6240582;22;20348;-62
2021/11/14 00:39:27;;;;;;;21.67;7.72;;;11.20;99.90;;;;;;6240857;22;20091;-62
2021/11/14 00:41:53;;;;;;;15.90;7.82;;;11.30;99.90;;;;;;6242102;22;20088;-62
2021/11/14 00:44:19;;;;;;;17.08;8.02;;;11.20;99.90;;;;;;6240894;22;20004;-62
2021/11/14 00:46:46;;;;;;;17.92;8.23;;;11.20;99.90;;;;;;6241500;22;20005;-62
2021/11/14 00:49:11;;;;;;;19.48;8.05;;;11.20;99.90;;;;;;6241511;22;19997;-62
2021/11/14 00:51:38;;;;;;;17.80;8.15;;;11.20;99.90;;;;;;6240770;22;20016;-61
2021/11/14 00:54:05;;;;;;;16.52;7.47;;;11.10;99.90;;;;;;6242175;22;20004;-62
2021/11/14 00:56:31;;;;;;;16.42;8.15;;;11.10;99.90;;;;;;6240478;22;20027;-63
2021/11/14 00:58:57;;;;;;;23.92;8.00;;;11.00;99.90;;;;;;6241656;22;20009;-63
2021/11/14 01:01:25;;;;;;;17.02;7.78;;;11.00;99.90;;;;;;6240478;22;20008;-62
2021/11/14 01:03:51;;;;;;;20.27;8.88;;;11.00;99.90;;;;;;6240959;22;20008;-62
2021/11/14 01:06:17;;;;;;;18.08;7.82;;;11.00;99.90;;;;;;6241268;22;20004;-62
2021/11/14 01:08:43;;;;;;;15.18;7.45;;;11.00;99.90;;;;;;6241309;22;20012;-62
2021/11/14 01:11:09;;;;;;;18.42;8.00;;;11.00;99.90;;;;;;6240930;22;20323;-63
2021/11/14 01:13:37;;;;;;;18.90;7.95;;;11.00;99.90;;;;;;6240808;22;20018;-61
2021/11/14 01:16:05;;;;;;;18.33;7.75;;;11.10;99.90;;;;;;6241351;22;20012;-62
2021/11/14 01:18:32;;;;;;;21.58;8.55;;;11.10;99.90;;;;;;6240716;22;20351;-62
2021/11/14 01:21:00;;;;;;;18.95;8.27;;;11.10;99.90;;;;;;6241300;22;20058;-62
2021/11/14 01:23:26;;;;;;;20.67;7.53;;;11.10;99.90;;;;;;6238834;22;20024;-62
2021/11/14 01:25:53;;;;;;;17.15;8.35;;;11.10;99.90;;;;;;6241435;22;20012;-60
2021/11/14 01:28:18;;;;;;;16.10;8.25;;;11.20;99.90;;;;;;6238642;22;20008;-62
2021/11/14 01:30:47;;;;;;;18.25;8.55;;;11.20;99.90;;;;;;6241447;22;20009;-62
2021/11/14 01:33:14;;;;;;;18.58;8.73;;;11.20;99.90;;;;;;6240532;22;20430;-64
2021/11/14 01:35:41;;;;;;;16.30;7.65;;;11.20;99.90;;;;;;6239208;22;20316;-62
2021/11/14 01:38:08;;;;;;;13.38;7.10;;;11.20;99.90;;;;;;6241563;22;20450;-62
2021/11/14 01:40:44;;;;;;;19.88;8.30;;;11.20;99.90;;;;;;6240661;22;20019;-62
2021/11/14 01:43:17;;;;;;;19.00;7.97;;;11.20;99.90;;;;;;6240243;22;20008;-62
2021/11/14 01:45:43;;;;;;;17.73;7.43;;;11.20;99.90;;;;;;6241166;22;20016;-62
2021/11/14 01:48:09;;;;;;;22.13;7.72;;;11.20;99.90;;;;;;6240610;22;20015;-63
2021/11/14 01:50:35;;;;;;;17.48;8.00;;;11.10;99.90;;;;;;6238634;22;20016;-63
2021/11/14 01:53:01;;;;;;;19.60;8.70;;;11.20;99.90;;;;;;6241300;22;20346;-62
2021/11/14 01:55:29;;;;;;;19.33;8.25;;;11.10;99.90;;;;;;6240373;22;20019;-62
2021/11/14 01:57:56;;;;;;;17.08;8.30;;;11.20;99.90;;;;;;6240059;23;20381;-62
2021/11/14 02:00:39;;;;;;;16.05;8.25;;;11.20;99.90;;;;;;6240237;22;20027;-63
2021/11/14 02:03:05;;;;;;;19.73;7.60;;;11.20;99.90;;;;;;6240760;22;20087;-63
2021/11/14 02:05:32;;;;;;;14.20;8.07;;;11.20;99.90;;;;;;6240108;22;20032;-62
2021/11/14 02:08:01;;;;;;;16.83;7.35;;;11.20;99.90;;;;;;6241085;22;20443;-63
2021/11/14 02:10:28;;;;;;;18.13;7.22;;;11.20;99.90;;;;;;6240273;22;20009;-62
2021/11/14 02:12:55;;;;;;;19.13;7.65;;;11.20;99.90;;;;;;6240869;22;20450;-62
2021/11/14 02:15:21;;;;;;;17.65;7.90;;;11.20;99.90;;;;;;6240384;22;20020;-63
2021/11/14 02:17:47;;;;;;;16.60;6.85;;;11.20;99.90;;;;;;6241041;22;20074;-62
2021/11/14 02:20:14;;;;;;;17.50;7.05;;;11.20;99.90;;;;;;6240326;22;20000;-63
2021/11/14 02:22:41;;;;;;;18.58;8.75;;;11.10;99.90;;;;;;6240480;22;20000;-63
2021/11/14 02:25:08;;;;;;;19.38;7.82;;;11.20;99.90;;;;;;6240753;22;20012;-62
2021/11/14 02:27:34;;;;;;;14.57;7.00;;;11.10;99.90;;;;;;6238435;22;20015;-62
2021/11/14 02:29:59;;;;;;;19.20;7.22;;;11.10;99.90;;;;;;6240941;22;20004;-62
2021/11/14 02:32:25;;;;;;;16.80;7.05;;;11.10;99.90;;;;;;6239846;22;20087;-62
2021/11/14 02:34:51;;;;;;;15.35;7.10;;;11.10;99.90;;;;;;6241064;22;20008;-62
2021/11/14 02:37:16;;;;;;;13.77;6.72;;;11.10;99.90;;;;;;6240060;22;20004;-63
2021/11/14 02:39:42;;;;;;;15.60;6.72;;;11.10;99.90;;;;;;6239100;22;20000;-67
2021/11/14 02:42:08;;;;;;;14.32;6.25;;;11.10;99.90;;;;;;6240588;22;20065;-62
2021/11/14 02:44:33;;;;;;;15.13;6.88;;;11.10;99.90;;;;;;6240331;22;20087;-62
2021/11/14 02:46:59;;;;;;;17.15;7.07;;;11.10;99.90;;;;;;6240481;22;20015;-62
2021/11/14 02:49:25;;;;;;;14.48;6.90;;;11.10;99.90;;;;;;6239534;22;20083;-62
2021/11/14 02:51:51;;;;;;;14.90;7.38;;;11.10;99.90;;;;;;6240646;22;20016;-61
2021/11/14 02:54:17;;;;;;;17.00;7.15;;;11.10;99.90;;;;;;6240348;22;20005;-61
2021/11/14 02:56:43;;;;;;;16.60;6.10;;;11.10;99.90;;;;;;6240217;22;20023;-62
2021/11/14 02:59:09;;;;;;;17.63;6.38;;;11.10;99.90;;;;;;6240979;22;20008;-61
2021/11/14 03:01:42;;;;;;;14.43;5.60;;;11.10;99.90;;;;;;6239596;22;20480;-62
2021/11/14 03:04:14;;;;;;;15.00;6.30;;;11.10;99.90;;;;;;6240615;22;20008;-62
2021/11/14 03:06:41;;;;;;;17.55;6.65;;;11.10;99.90;;;;;;6238242;22;20347;-62
2021/11/14 03:09:07;;;;;;;24.05;7.57;;;11.10;99.90;;;;;;6240928;22;20015;-61
2021/11/14 03:11:33;;;;;;;20.95;6.45;;;11.10;99.90;;;;;;6237274;22;20008;-62
2021/11/14 03:13:59;;;;;;;16.13;6.53;;;11.10;99.90;;;;;;6239696;22;20100;-62
2021/11/14 03:16:26;;;;;;;13.82;7.13;;;11.10;99.90;;;;;;6239216;22;20396;-61
2021/11/14 03:18:54;;;;;;;13.10;6.22;;;11.00;99.90;;;;;;6239224;23;20066;-62
2021/11/14 03:21:20;;;;;;;15.57;7.13;;;11.00;99.90;;;;;;6239382;22;20083;-62
2021/11/14 03:23:46;;;;;;;13.90;6.93;;;11.00;99.90;;;;;;6240678;22;20031;-62
2021/11/14 03:26:13;;;;;;;12.40;6.50;;;11.00;99.90;;;;;;6238291;22;20016;-61
2021/11/14 03:28:38;;;;;;;17.20;6.80;;;11.00;99.90;;;;;;6239887;22;20058;-62
2021/11/14 03:31:04;;;;;;;18.73;6.93;;;11.00;99.90;;;;;;6240300;22;20004;-62
2021/11/14 03:33:30;;;;;;;15.23;6.82;;;11.00;99.90;;;;;;6239455;22;20004;-62
2021/11/14 03:36:04;;;;;;;13.88;6.60;;;11.10;99.90;;;;;;6240305;22;20066;-62
2021/11/14 03:38:33;;;;;;;13.85;6.90;;;11.00;99.90;;;;;;6239495;22;20338;-62
2021/11/14 03:41:00;;;;;;;15.23;6.97;;;11.10;99.90;;;;;;6240375;22;20043;-62
2021/11/14 03:43:27;;;;;;;15.52;6.50;;;11.10;99.90;;;;;;6239160;22;20435;-62
2021/11/14 03:45:53;;;;;;;17.58;6.40;;;11.00;99.90;;;;;;6240518;22;20092;-62
2021/11/14 03:48:19;;;;;;;14.80;6.53;;;11.00;99.90;;;;;;6239682;22;20024;-67
2021/11/14 03:50:45;;;;;;;14.10;5.85;;;11.00;99.90;;;;;;6240279;22;20019;-62
2021/11/14 03:53:11;;;;;;;11.65;5.85;;;11.00;99.90;;;;;;6239717;22;20015;-63
2021/11/14 03:55:37;;;;;;;15.70;6.82;;;11.00;99.90;;;;;;6238047;22;20008;-61
2021/11/14 03:58:05;;;;;;;12.80;5.97;;;11.00;99.90;;;;;;6239801;22;20004;-62
2021/11/14 04:00:36;;;;;;;16.05;6.18;;;11.00;99.90;;;;;;6237537;22;20012;-62
2021/11/14 04:03:04;;;;;;;14.95;6.03;;;11.00;99.90;;;;;;6240318;22;20009;-63
2021/11/14 04:05:30;;;;;;;16.40;7.25;;;11.00;99.90;;;;;;6239493;22;20104;-63
2021/11/14 04:07:57;;;;;;;18.55;7.22;;;11.00;99.90;;;;;;6240254;22;20027;-62
2021/11/14 04:10:23;;;;;;;12.48;6.57;;;11.00;99.90;;;;;;6239350;22;20372;-63
2021/11/14 04:12:49;;;;;;;17.55;7.25;;;11.00;99.90;;;;;;6240784;22;20005;-61
2021/11/14 04:15:16;;;;;;;17.13;7.07;;;11.00;99.90;;;;;;6241427;22;20008;-63
2021/11/14 04:17:42;;;;;;;17.30;6.90;;;11.00;99.90;;;;;;6241987;22;20009;-61
2021/11/14 04:20:11;;;;;;;17.20;7.38;;;11.00;99.90;;;;;;6242201;22;20457;-62
2021/11/14 04:22:38;;;;;;;15.55;6.82;;;11.00;99.90;;;;;;6241077;22;20509;-62
2021/11/14 04:25:06;;;;;;;19.15;6.93;;;11.00;99.90;;;;;;6242394;22;20011;-62
2021/11/14 04:27:32;;;;;;;18.15;7.38;;;11.00;99.90;;;;;;6240987;22;20012;-61
2021/11/14 04:29:57;;;;;;;16.45;7.25;;;11.00;99.90;;;;;;6242204;22;20019;-63
2021/11/14 04:32:23;;;;;;;16.02;6.80;;;11.00;99.90;;;;;;6240451;22;20012;-62
2021/11/14 04:34:48;;;;;;;14.32;6.90;;;11.00;99.90;;;;;;6242118;22;20012;-63
2021/11/14 04:37:14;;;;;;;16.50;8.43;;;10.90;99.90;;;;;;6241500;22;20012;-65
2021/11/14 04:39:39;;;;;;;16.23;7.05;;;10.90;99.90;;;;;;6240973;22;20083;-62
2021/11/14 04:42:07;;;;;;;17.35;6.93;;;11.00;99.90;;;;;;6241604;22;20008;-62
2021/11/14 04:44:34;;;;;;;20.23;8.25;;;10.90;99.90;;;;;;6240879;22;20028;-62
2021/11/14 04:47:00;;;;;;;15.95;7.07;;;11.00;99.90;;;;;;6242226;22;20000;-62
2021/11/14 04:49:26;;;;;;;17.67;7.53;;;10.90;99.90;;;;;;6240545;22;20007;-63
2021/11/14 04:51:52;;;;;;;21.00;6.32;;;10.90;99.90;;;;;;6241783;22;20053;-63
2021/11/14 04:54:19;;;;;;;20.52;7.70;;;10.90;99.90;;;;;;6240732;22;20016;-62
2021/11/14 04:56:45;;;;;;;19.48;7.72;;;10.90;99.90;;;;;;6241499;22;20012;-62
2021/11/14 04:59:11;;;;;;;14.35;7.25;;;10.90;99.90;;;;;;6241425;22;20011;-63
2021/11/14 05:01:38;;;;;;;20.45;7.55;;;10.90;99.90;;;;;;6239442;22;20023;-63
2021/11/14 05:04:04;;;;;;;16.15;7.20;;;10.90;99.90;;;;;;6241576;22;20018;-62
2021/11/14 05:06:30;;;;;;;17.77;7.90;;;10.90;99.90;;;;;;6240765;22;20066;-63
2021/11/14 05:08:57;;;;;;;22.65;7.80;;;10.80;99.90;;;;;;6241384;22;20077;-64
2021/11/14 05:11:23;;;;;;;18.10;7.13;;;10.90;99.90;;;;;;6240476;22;20012;-61
2021/11/14 05:13:48;;;;;;;18.67;8.20;;;10.80;99.90;;;;;;6241425;22;20507;-62
2021/11/14 05:16:14;;;;;;;20.17;8.55;;;10.80;99.90;;;;;;6241434;22;20012;-62
2021/11/14 05:18:40;;;;;;;16.63;7.57;;;10.80;99.90;;;;;;6241330;22;20004;-62
2021/11/14 05:21:06;;;;;;;18.75;8.02;;;10.80;99.90;;;;;;6241917;22;20039;-63
2021/11/14 05:23:31;;;;;;;19.60;7.75;;;10.80;99.90;;;;;;6237872;22;20106;-62
2021/11/14 05:25:57;;;;;;;18.58;8.07;;;10.80;99.90;;;;;;6238204;22;20015;-63
2021/11/14 05:28:23;;;;;;;19.50;8.15;;;10.80;99.90;;;;;;6240569;22;20008;-62
2021/11/14 05:30:48;;;;;;;19.15;7.88;;;10.80;99.90;;;;;;6241681;22;20505;-62
2021/11/14 05:33:15;;;;;;;18.45;8.43;;;10.80;99.90;;;;;;6241069;22;20019;-62
2021/11/14 05:35:41;;;;;;;19.95;7.90;;;10.80;99.90;;;;;;6240817;22;20012;-62
2021/11/14 05:38:06;;;;;;;20.98;8.20;;;10.70;99.90;;;;;;6241595;22;20083;-62
2021/11/14 05:40:34;;;;;;;22.98;8.77;;;10.80;99.90;;;;;;6240593;22;20079;-62
2021/11/14 05:43:00;;;;;;;18.20;8.52;;;10.80;99.90;;;;;;6241189;22;20091;-63
2021/11/14 05:45:26;;;;;;;16.42;7.93;;;10.70;99.90;;;;;;6240589;22;20386;-63
2021/11/14 05:47:52;;;;;;;21.33;8.63;;;10.70;99.90;;;;;;6241588;22;20373;-63
2021/11/14 05:50:18;;;;;;;22.30;8.60;;;10.70;99.90;;;;;;6240593;22;20377;-63
2021/11/14 05:52:43;;;;;;;20.65;9.05;;;10.70;99.90;;;;;;6240397;22;20005;-62
2021/11/14 05:55:10;;;;;;;22.05;10.23;;;10.70;99.90;;;;;;6240622;22;20091;-61
2021/11/14 05:57:57;;;;;;;23.88;9.45;;;10.70;99.90;;;;;;6236955;22;20015;-62
2021/11/14 06:03:12;;;;;;;21.10;9.40;;;10.70;99.90;;;;;;6243333;22;20003;-62
2021/11/14 06:05:38;;;;;;;20.80;8.52;;;10.70;99.90;;;;;;6238478;22;20000;-62
2021/11/14 06:08:07;;;;;;;21.00;8.52;;;10.70;99.90;;;;;;6239614;23;20000;-63
2021/11/14 06:10:33;;;;;;;19.83;8.25;;;10.70;99.90;;;;;;6240081;22;20004;-62
2021/11/14 06:13:00;;;;;;;21.25;9.50;;;10.60;99.90;;;;;;6240903;22;20004;-61
2021/11/14 06:15:26;;;;;;;22.23;8.65;;;10.60;99.90;;;;;;6239749;22;20016;-63
2021/11/14 06:17:51;;;;;;;24.88;10.27;;;10.60;99.90;;;;;;6241111;22;20000;-63
2021/11/14 06:20:21;;;;;;;28.30;9.82;;;10.60;99.90;;;;;;6240481;22;20004;-62
2021/11/14 06:22:47;;;;;;;26.70;10.73;;;10.60;99.90;;;;;;6240608;22;20007;-62
2021/11/14 06:25:12;;;;;;;24.88;10.13;;;10.60;99.90;;;;;;6240440;22;20012;-63
2021/11/14 06:27:38;;;;;;;26.20;10.00;;;10.60;99.90;;;;;;6240353;22;20011;-62
2021/11/14 06:30:07;;;;;;;26.67;10.43;;;10.50;99.90;;;;;;6240655;22;20342;-62
2021/11/14 06:32:34;;;;;;;21.52;9.40;;;10.60;99.90;;;;;;6240352;22;20020;-63
2021/11/14 06:34:59;;;;;;;22.25;9.82;;;10.60;99.90;;;;;;6238662;23;20110;-62
2021/11/14 06:37:27;;;;;;;22.35;10.02;;;10.60;99.90;;;;;;6240227;22;20427;-63
2021/11/14 06:39:52;;;;;;;24.80;10.50;;;10.60;99.90;;;;;;6240574;22;20011;-63
2021/11/14 06:42:18;;;;;;;24.20;10.45;;;10.70;99.90;;;;;;6240480;22;20004;-63
2021/11/14 06:44:44;;;;;;;22.95;9.73;;;10.70;99.90;;;;;;6238107;23;20004;-62
2021/11/14 06:47:11;;;;;;;30.85;12.95;;;10.60;99.90;;;;;;6238982;23;20439;-62
2021/11/14 06:49:37;;;;;;;24.65;10.63;;;10.60;99.90;;;;;;6238068;22;20027;-62
2021/11/14 06:52:03;;;;;;;26.73;10.15;;;10.60;99.90;;;;;;6240608;22;20427;-63
2021/11/14 06:54:28;;;;;;;26.35;10.02;;;10.60;99.90;;;;;;6239771;22;20440;-63
2021/11/14 06:56:54;;;;;;;26.42;11.27;;;10.60;99.90;;;;;;6240447;22;20083;-62
2021/11/14 06:59:20;;;;;;;27.38;10.63;;;10.60;99.90;;;;;;6239833;22;20008;-65
2021/11/14 07:01:45;;;;;;;29.55;10.77;;;10.60;99.90;;;;;;6240340;22;20551;-62
2021/11/14 07:04:11;;;;;;;25.55;10.68;;;10.50;99.90;;;;;;6238248;22;20102;-62
2021/11/14 07:06:37;;;;;;;27.55;11.10;;;10.50;99.90;;;;;;6238287;22;20517;-62
2021/11/14 07:09:04;;;;;;;25.13;9.73;;;10.50;99.90;;;;;;6240620;22;20107;-63
2021/11/14 07:11:30;;;;;;;28.70;10.20;;;10.60;99.90;;;;;;6238117;22;20038;-61
2021/11/14 07:13:56;;;;;;;27.73;10.70;;;10.50;99.90;;;;;;6240450;22;20087;-62
2021/11/14 07:16:22;;;;;;;26.20;10.55;;;10.50;99.90;;;;;;6237832;22;20032;-62
2021/11/14 07:18:47;;;;;;;27.48;10.93;;;10.50;99.90;;;;;;6241011;22;20027;-62
2021/11/14 07:21:13;;;;;;;28.92;11.50;;;10.50;99.90;;;;;;6239544;22;20350;-62
2021/11/14 07:23:39;;;;;;;26.00;9.98;;;10.60;99.90;;;;;;6238393;22;20023;-62
2021/11/14 07:26:04;;;;;;;31.00;10.65;;;10.60;99.90;;;;;;6240137;22;20020;-62
2021/11/14 07:28:30;;;;;;;26.23;11.00;;;10.60;99.90;;;;;;6237481;22;20013;-63
2021/11/14 07:30:56;;;;;;;28.67;11.15;;;10.50;99.90;;;;;;6240039;22;20338;-63
2021/11/14 07:33:21;;;;;;;29.13;11.35;;;10.60;99.90;;;;;;6239715;22;20315;-63
2021/11/14 07:35:47;;;;;;;30.02;11.43;;;10.50;99.90;;;;;;6240319;22;20450;-62
2021/11/14 07:38:13;;;;;;;26.55;10.75;;;10.60;99.90;;;;;;6239818;22;20474;-62
2021/11/14 07:40:38;;;;;;;29.38;10.60;;;10.60;99.90;;;;;;6237703;22;20082;-63
2021/11/14 07:43:04;;;;;;;31.17;11.40;;;10.60;99.90;;;;;;6238046;22;20015;-62
2021/11/14 07:45:30;;;;;;;27.52;12.23;;;10.60;99.90;;;;;;6239370;22;20016;-62
2021/11/14 07:47:56;;;;;;;31.60;11.85;;;10.60;99.90;;;;;;6242112;22;20008;-62
2021/11/14 07:50:24;;;;;;;27.58;11.90;;;10.60;99.90;;;;;;6241426;22;20008;-62
2021/11/14 07:52:50;;;;;;;35.50;12.27;;;10.60;99.90;;;;;;6242188;22;20079;-62
2021/11/14 07:55:16;;;;;;;26.15;10.73;;;10.70;99.90;;;;;;6242152;22;20016;-62
2021/11/14 07:57:45;;;;;;;33.38;12.60;;;10.70;99.90;;;;;;6241924;22;20000;-62
2021/11/14 08:00:17;;;;;;;33.40;14.02;;;10.70;99.90;;;;;;6242132;22;20058;-63
2021/11/14 08:02:44;;;;;;;29.33;12.52;;;10.70;99.90;;;;;;6242192;22;20004;-62
2021/11/14 08:05:10;;;;;;;29.85;11.85;;;10.70;99.90;;;;;;6242440;22;20043;-63
2021/11/14 08:07:35;;;;;;;29.63;12.50;;;10.70;99.90;;;;;;6240847;22;20012;-62
2021/11/14 08:10:01;;;;;;;31.38;11.85;;;10.70;99.90;;;;;;6242101;22;20005;-64
2021/11/14 08:12:27;;;;;;;28.77;11.02;;;10.70;99.90;;;;;;6238745;22;20008;-62
2021/11/14 08:14:53;;;;;;;25.88;11.48;;;10.70;99.90;;;;;;6242545;22;20058;-62
2021/11/14 08:17:18;;;;;;;31.15;11.15;;;10.70;99.90;;;;;;6241487;22;20008;-62
2021/11/14 08:19:44;;;;;;;34.25;12.60;;;10.70;99.90;;;;;;6241897;22;20066;-62
2021/11/14 08:22:10;;;;;;;28.25;11.15;;;10.70;99.90;;;;;;6241836;22;20427;-63
2021/11/14 08:24:35;;;;;;;32.13;12.60;;;10.70;99.90;;;;;;6239773;22;20078;-64
2021/11/14 08:27:01;;;;;;;30.17;11.70;;;10.80;99.90;;;;;;6237719;22;20004;-62
2021/11/14 08:29:27;;;;;;;32.30;11.70;;;10.80;99.90;;;;;;6239526;22;19996;-63
2021/11/14 08:31:52;;;;;;;25.98;10.60;;;10.80;99.90;;;;;;6238847;23;20088;-62
2021/11/14 08:34:18;;;;;;;30.65;10.70;;;10.90;99.90;;;;;;6240115;22;20000;-65
2021/11/14 08:36:44;;;;;;;27.63;11.55;;;10.90;99.90;;;;;;6240392;22;20061;-62
2021/11/14 08:39:09;;;;;;;26.02;10.93;;;10.90;99.90;;;;;;6240835;22;20004;-62
2021/11/14 08:41:35;;;;;;;30.60;12.23;;;10.90;99.90;;;;;;6235583;22;20089;-62
2021/11/14 08:44:01;;;;;;;25.45;10.88;;;10.90;99.90;;;;;;6239016;22;20119;-62
2021/11/14 08:46:27;;;;;;;26.25;10.60;;;10.90;99.90;;;;;;6237144;22;20109;-62
2021/11/14 08:48:53;;;;;;;27.02;11.35;;;11.00;99.90;;;;;;6238770;22;20454;-62
2021/11/14 08:51:20;;;;;;;26.60;11.95;;;10.90;99.90;;;;;;6238586;22;20039;-62
2021/11/14 08:53:46;;;;;;;27.73;11.38;;;10.90;99.90;;;;;;6237585;22;20015;-61
2021/11/14 08:56:11;;;;;;;30.25;11.45;;;10.90;99.90;;;;;;6237309;22;20016;-62
2021/11/14 08:58:38;;;;;;;25.98;10.82;;;10.90;99.90;;;;;;6237396;22;20016;-62
2021/11/14 09:01:06;;;;;;;28.17;11.73;;;11.00;99.90;;;;;;6238153;22;20004;-62
2021/11/14 09:03:33;;;;;;;38.03;10.75;;;11.00;99.90;;;;;;6236490;22;20040;-61
2021/11/14 09:05:59;;;;;;;28.98;11.18;;;11.00;99.90;;;;;;6239139;22;20086;-62
2021/11/14 09:08:24;;;;;;;25.02;12.10;;;11.10;99.90;;;;;;6238495;22;20443;-62
2021/11/14 09:10:51;;;;;;;26.35;10.23;;;11.10;99.90;;;;;;6238959;22;20039;-62
2021/11/14 09:13:16;;;;;;;28.80;10.57;;;11.10;99.90;;;;;;6238322;22;20573;-62
2021/11/14 09:15:43;;;;;;;27.25;12.07;;;11.10;99.90;;;;;;6239448;22;20062;-62
2021/11/14 09:18:09;;;;;;;26.45;10.35;;;11.10;99.90;;;;;;6236525;22;20603;-62
2021/11/14 09:20:35;;;;;;;27.85;10.57;;;11.10;99.90;;;;;;6238059;22;20012;-62
2021/11/14 09:23:01;;;;;;;26.13;10.98;;;11.10;99.90;;;;;;6238810;22;20004;-62
2021/11/14 09:25:27;;;;;;;24.25;10.43;;;11.10;99.90;;;;;;6239001;22;20099;-62
2021/11/14 09:27:54;;;;;;;25.70;9.90;;;11.20;99.90;;;;;;6239715;22;20012;-62
2021/11/14 09:30:20;;;;;;;24.20;10.60;;;11.20;99.90;;;;;;6240057;22;20312;-63
2021/11/14 09:32:47;;;;;;;23.77;10.75;;;11.20;99.90;;;;;;6239601;22;20019;-63
2021/11/14 09:35:13;;;;;;;25.95;10.80;;;11.20;99.90;;;;;;6240580;22;20020;-63
2021/11/14 09:37:39;;;;;;;25.17;10.02;;;11.20;99.90;;;;;;6239528;22;20457;-63
2021/11/14 09:40:08;;;;;;;21.98;8.60;;;11.20;99.90;;;;;;6240509;22;20004;-63
2021/11/14 09:42:34;;;;;;;21.90;9.52;;;11.20;99.90;;;;;;6236834;22;20004;-62
2021/11/14 09:45:00;;;;;;;26.17;9.02;;;11.30;99.90;;;;;;6241308;22;20011;-62
2021/11/14 09:47:26;;;;;;;28.00;9.55;;;11.30;99.90;;;;;;6238352;22;20518;-63
2021/11/14 09:49:54;;;;;;;22.90;9.18;;;11.30;99.90;;;;;;6240170;22;20019;-62
2021/11/14 09:52:20;;;;;;;21.05;8.65;;;11.30;99.90;;;;;;6239287;22;20008;-62
2021/11/14 09:54:46;;;;;;;25.88;9.25;;;11.40;99.90;;;;;;6239853;22;20062;-62
2021/11/14 09:57:11;;;;;;;21.02;9.13;;;11.40;99.90;;;;;;6240166;22;20004;-62
2021/11/14 09:59:37;;;;;;;21.60;8.38;;;11.30;99.90;;;;;;6237260;22;20000;-62
2021/11/14 10:02:05;;;;;;;22.67;8.70;;;11.40;99.90;;;;;;6240319;22;20008;-62
2021/11/14 10:04:31;;;;;;;16.52;7.07;;;11.40;99.90;;;;;;6239178;22;20008;-62
2021/11/14 10:07:03;;;;;;;22.40;8.57;;;11.40;99.90;;;;;;6240592;22;20461;-61
2021/11/14 10:09:31;;;;;;;18.48;7.75;;;11.40;99.90;;;;;;6238893;22;20070;-63
2021/11/14 10:11:57;;;;;;;20.55;8.40;;;11.50;99.90;;;;;;6239974;22;20012;-62
2021/11/14 10:14:23;;;;;;;17.02;7.45;;;11.50;99.90;;;;;;6238851;22;20288;-62
2021/11/14 10:16:49;;;;;;;16.70;7.57;;;11.50;99.90;;;;;;6240220;22;20473;-62
2021/11/14 10:19:15;;;;;;;18.67;7.32;;;11.50;99.90;;;;;;6240077;22;20008;-63
2021/11/14 10:21:45;;;;;;;18.92;7.20;;;11.40;99.90;;;;;;6240310;22;20443;-62
2021/11/14 10:24:12;;;;;;;11.10;5.37;;;11.40;99.90;;;;;;6241213;22;20015;-62
2021/11/14 10:26:39;;;;;;;14.95;6.13;;;11.40;99.90;;;;;;6240386;22;20569;-62
2021/11/14 10:29:12;;;;;;;15.50;6.38;;;11.40;99.90;;;;;;6240944;22;20008;-62
2021/11/14 10:31:39;;;;;;;16.67;6.15;;;11.40;99.90;;;;;;6240084;22;20079;-62
2021/11/14 10:34:06;;;;;;;11.93;5.63;;;11.40;99.90;;;;;;6240962;22;20039;-62
2021/11/14 10:36:32;;;;;;;15.57;6.75;;;11.40;99.90;;;;;;6239617;22;20011;-62
2021/11/14 10:39:05;;;;;;;13.00;5.22;;;11.40;99.90;;;;;;6240798;22;20012;-61
2021/11/14 10:41:31;;;;;;;12.85;6.05;;;11.50;99.90;;;;;;6239677;22;20083;-62
2021/11/14 10:44:12;;;;;;;15.65;5.85;;;11.40;99.90;;;;;;6239390;23;20043;-63
2021/11/14 10:46:38;;;;;;;15.35;5.88;;;11.40;99.90;;;;;;6238358;22;20090;-62
2021/11/14 10:49:05;;;;;;;12.32;5.95;;;11.40;99.90;;;;;;6240976;22;20015;-63
2021/11/14 10:51:31;;;;;;;16.10;6.72;;;11.30;99.90;;;;;;6237742;22;20012;-62
2021/11/14 10:53:57;;;;;;;15.27;5.95;;;11.40;99.90;;;;;;6239610;22;20008;-62
2021/11/14 10:56:22;;;;;;;18.30;6.97;;;11.30;99.90;;;;;;6240307;22;20477;-64
2021/11/14 10:58:52;;;;;;;15.63;5.82;;;11.30;99.90;;;;;;6240974;22;20533;-62
2021/11/14 11:01:17;;;;;;;18.05;5.93;;;11.30;99.90;;;;;;6239990;22;20015;-62
2021/11/14 11:03:52;;;;;;;14.70;6.38;;;11.30;99.90;;;;;;6240504;22;20012;-62
2021/11/14 11:06:26;;;;;;;13.13;6.32;;;11.30;99.90;;;;;;6240627;22;20004;-62
2021/11/14 11:08:56;;;;;;;16.20;6.55;;;11.30;99.90;;;;;;6240174;22;20012;-62
2021/11/14 11:11:23;;;;;;;18.53;7.10;;;11.40;99.90;;;;;;6238310;22;20036;-63
2021/11/14 11:13:51;;;;;;;16.10;7.10;;;11.40;99.90;;;;;;6237447;22;20046;-62
2021/11/14 11:16:20;;;;;;;14.70;6.22;;;11.40;99.90;;;;;;6240773;22;20055;-63
2021/11/14 11:19:06;;;;;;;15.45;6.65;;;11.40;99.90;;;;;;6239681;22;20438;-63
2021/11/14 11:21:37;;;;;;;13.23;6.20;;;11.50;99.90;;;;;;6239555;22;20040;-63
2021/11/14 11:24:18;;;;;;;16.65;6.30;;;11.40;99.90;;;;;;6240610;22;20038;-63
2021/11/14 11:27:04;;;;;;;14.45;6.20;;;11.50;99.90;;;;;;6240062;22;20008;-63
2021/11/14 11:29:31;;;;;;;13.50;5.82;;;11.50;99.90;;;;;;6239466;22;20091;-62
2021/11/14 11:31:57;;;;;;;16.65;7.18;;;11.40;99.90;;;;;;6240767;22;20015;-62
2021/11/14 11:34:24;;;;;;;12.18;5.97;;;11.50;99.90;;;;;;6239321;22;20008;-64
2021/11/14 11:36:51;;;;;;;11.07;5.22;;;11.40;99.90;;;;;;6240548;22;20019;-62
2021/11/14 11:39:18;;;;;;;16.13;6.60;;;11.40;99.90;;;;;;6240658;22;20092;-62
2021/11/14 11:41:45;;;;;;;12.10;5.90;;;11.40;99.90;;;;;;6239829;22;20000;-62
2021/11/14 11:44:11;;;;;;;16.70;6.07;;;11.50;99.90;;;;;;6240713;22;20083;-62
2021/11/14 11:46:39;;;;;;;19.33;7.20;;;11.60;99.90;;;;;;6239812;22;20016;-62
2021/11/14 11:49:09;;;;;;;14.85;6.35;;;11.60;99.90;;;;;;6240882;22;20427;-63
2021/11/14 11:51:37;;;;;;;15.68;6.68;;;11.50;99.90;;;;;;6237601;22;20015;-63
2021/11/14 11:54:08;;;;;;;13.32;5.78;;;11.50;99.90;;;;;;6240741;22;20004;-62
2021/11/14 11:57:06;;;;;;;14.70;5.82;;;11.50;99.90;;;;;;6240087;22;20091;-62
2021/11/14 11:59:47;;;;;;;16.20;6.07;;;11.50;99.90;;;;;;6221649;22;20019;-61
2021/11/14 12:02:16;;;;;;;13.55;5.57;;;11.50;99.90;;;;;;6240582;22;20008;-63
2021/11/14 12:04:48;;;;;;;13.48;5.88;;;11.50;99.90;;;;;;6239478;22;20338;-62
2021/11/14 12:07:30;;;;;;;12.68;6.10;;;11.50;99.90;;;;;;6240857;22;20008;-62
2021/11/14 12:10:04;;;;;;;15.48;6.57;;;11.50;99.90;;;;;;6239315;22;20046;-62
2021/11/14 12:12:36;;;;;;;13.85;6.03;;;11.50;99.90;;;;;;6239226;22;20016;-62
2021/11/14 12:15:20;;;;;;;12.80;5.63;;;11.50;99.90;;;;;;6240295;22;20004;-62
2021/11/14 12:17:57;;;;;;;14.52;6.80;;;11.60;99.90;;;;;;6239690;23;20012;-62
2021/11/14 12:20:49;;;;;;;14.88;6.68;;;11.50;99.90;;;;;;6239007;22;20083;-62
2021/11/14 12:23:34;;;;;;;12.50;6.50;;;11.60;99.90;;;;;;6240203;23;20004;-63
2021/11/14 12:26:07;;;;;;;14.80;6.90;;;11.50;99.90;;;;;;6239777;22;20446;-62
2021/11/14 12:28:33;;;;;;;20.98;6.80;;;11.50;99.90;;;;;;6239583;22;20012;-62
2021/11/14 12:31:09;;;;;;;19.88;6.65;;;11.60;99.90;;;;;;6238459;22;20087;-62
2021/11/14 12:33:47;;;;;;;15.63;6.15;;;11.70;99.90;;;;;;6241022;22;20012;-63
2021/11/14 12:36:39;;;;;;;12.80;6.18;;;11.60;99.90;;;;;;6242109;22;20099;-62